createdAt,value
2022-11-24T00:00:13.690Z,998.15
2022-11-24T00:01:13.662Z,998.14
2022-11-24T00:02:13.735Z,998.15
2022-11-24T00:03:13.730Z,998.15
2022-11-24T00:04:13.634Z,998.15
2022-11-24T00:05:13.598Z,998.15
2022-11-24T00:06:13.648Z,998.15
2022-11-24T00:07:13.664Z,998.15
2022-11-24T00:08:13.584Z,998.16
2022-11-24T00:09:13.581Z,998.15
2022-11-24T00:10:13.596Z,998.17
2022-11-24T00:11:13.606Z,998.19
2022-11-24T00:12:13.537Z,998.18
2022-11-24T00:13:13.532Z,998.17
2022-11-24T00:14:13.520Z,998.18
2022-11-24T00:15:13.503Z,998.20
2022-11-24T00:16:13.719Z,998.22
2022-11-24T00:17:13.475Z,998.23
2022-11-24T00:18:13.523Z,998.24
2022-11-24T00:19:18.365Z,998.24
2022-11-24T00:20:13.458Z,998.25
2022-11-24T00:21:13.458Z,998.27
2022-11-24T00:22:13.420Z,998.26
2022-11-24T00:23:13.440Z,998.27
2022-11-24T00:24:13.406Z,998.27
2022-11-24T00:25:13.395Z,998.28
2022-11-24T00:26:13.391Z,998.29
2022-11-24T00:27:13.384Z,998.28
2022-11-24T00:28:13.394Z,998.29
2022-11-24T00:29:13.355Z,998.30
2022-11-24T00:30:13.345Z,998.32
2022-11-24T00:31:16.974Z,998.34
2022-11-24T00:32:13.364Z,998.36
2022-11-24T00:33:13.320Z,998.38
2022-11-24T00:34:13.342Z,998.40
2022-11-24T00:35:13.304Z,998.42
2022-11-24T00:36:13.293Z,998.45
2022-11-24T00:37:13.270Z,998.47
2022-11-24T00:38:13.264Z,998.49
2022-11-24T00:39:13.312Z,998.49
2022-11-24T00:40:13.253Z,998.51
2022-11-24T00:41:13.243Z,998.52
2022-11-24T00:42:13.222Z,998.55
2022-11-24T00:43:13.234Z,998.58
2022-11-24T00:44:13.251Z,998.60
2022-11-24T00:45:14.197Z,998.61
2022-11-24T00:46:13.267Z,998.63
2022-11-24T00:47:13.305Z,998.62
2022-11-24T00:48:13.164Z,998.61
2022-11-24T00:49:13.187Z,998.61
2022-11-24T00:50:13.181Z,998.61
2022-11-24T00:51:13.141Z,998.62
2022-11-24T00:52:13.156Z,998.62
2022-11-24T00:53:13.107Z,998.65
2022-11-24T00:54:13.113Z,998.67
2022-11-24T00:55:13.096Z,998.67
2022-11-24T00:56:13.098Z,998.70
2022-11-24T00:57:13.085Z,998.70
2022-11-24T00:58:13.087Z,998.66
2022-11-24T00:59:13.061Z,998.65
2022-11-24T01:00:13.035Z,998.70
2022-11-24T01:01:13.163Z,998.72
2022-11-24T01:02:13.042Z,998.72
2022-11-24T01:03:13.045Z,998.72
2022-11-24T01:04:13.001Z,998.71
2022-11-24T01:05:13.012Z,998.72
2022-11-24T01:06:13.035Z,998.74
2022-11-24T01:07:13.018Z,998.76
2022-11-24T01:08:12.963Z,998.79
2022-11-24T01:09:12.985Z,998.77
2022-11-24T01:10:12.970Z,998.81
2022-11-24T01:11:12.962Z,998.82
2022-11-24T01:12:12.921Z,998.78
2022-11-24T01:13:12.904Z,998.75
2022-11-24T01:14:12.896Z,998.78
2022-11-24T01:15:12.887Z,998.86
2022-11-24T01:16:13.055Z,998.90
2022-11-24T01:17:12.867Z,998.88
2022-11-24T01:18:12.864Z,998.87
2022-11-24T01:19:12.858Z,998.87
2022-11-24T01:20:12.836Z,998.93
2022-11-24T01:21:12.842Z,998.96
2022-11-24T01:22:12.842Z,998.98
2022-11-24T01:23:12.824Z,999.01
2022-11-24T01:24:12.807Z,999.02
2022-11-24T01:25:12.773Z,999.05
2022-11-24T01:26:12.787Z,999.05
2022-11-24T01:27:12.786Z,999.05
2022-11-24T01:28:12.789Z,999.04
2022-11-24T01:29:12.771Z,999.04
2022-11-24T01:30:12.757Z,999.05
2022-11-24T01:31:12.820Z,999.04
2022-11-24T01:32:12.719Z,999.04
2022-11-24T01:33:12.727Z,999.05
2022-11-24T01:34:12.703Z,999.06
2022-11-24T01:35:12.704Z,999.06
2022-11-24T01:36:12.670Z,999.06
2022-11-24T01:37:12.655Z,999.09
2022-11-24T01:38:12.671Z,999.11
2022-11-24T01:39:12.735Z,999.12
2022-11-24T01:40:12.653Z,999.12
2022-11-24T01:41:12.630Z,999.13
2022-11-24T01:42:12.634Z,999.12
2022-11-24T01:43:12.605Z,999.12
2022-11-24T01:44:12.617Z,999.12
2022-11-24T01:45:12.599Z,999.13
2022-11-24T01:46:12.669Z,999.14
2022-11-24T01:47:12.569Z,999.14
2022-11-24T01:48:12.579Z,999.14
2022-11-24T01:49:12.564Z,999.12
2022-11-24T01:50:12.536Z,999.13
2022-11-24T01:51:12.518Z,999.14
2022-11-24T01:52:12.517Z,999.14
2022-11-24T01:53:12.507Z,999.16
2022-11-24T01:54:12.524Z,999.18
2022-11-24T01:55:12.472Z,999.20
2022-11-24T01:56:12.473Z,999.23
2022-11-24T01:57:12.456Z,999.24
2022-11-24T01:58:12.465Z,999.25
2022-11-24T01:59:12.484Z,999.23
2022-11-24T02:00:12.458Z,999.21
2022-11-24T02:01:12.458Z,999.20
2022-11-24T02:02:12.434Z,999.21
2022-11-24T02:03:12.417Z,999.21
2022-11-24T02:04:12.443Z,999.23
2022-11-24T02:05:12.377Z,999.24
2022-11-24T02:06:12.384Z,999.25
2022-11-24T02:07:12.426Z,999.27
2022-11-24T02:08:12.364Z,999.28
2022-11-24T02:09:12.360Z,999.29
2022-11-24T02:10:12.335Z,999.30
2022-11-24T02:11:12.316Z,999.30
2022-11-24T02:12:12.340Z,999.31
2022-11-24T02:13:12.294Z,999.32
2022-11-24T02:14:12.295Z,999.32
2022-11-24T02:15:12.278Z,999.32
2022-11-24T02:16:12.464Z,999.31
2022-11-24T02:17:12.279Z,999.28
2022-11-24T02:18:12.251Z,999.25
2022-11-24T02:19:12.246Z,999.25
2022-11-24T02:20:12.252Z,999.23
2022-11-24T02:21:12.219Z,999.26
2022-11-24T02:22:12.244Z,999.27
2022-11-24T02:23:12.194Z,999.24
2022-11-24T02:24:12.228Z,999.19
2022-11-24T02:25:12.203Z,999.17
2022-11-24T02:26:12.165Z,999.18
2022-11-24T02:27:12.163Z,999.23
2022-11-24T02:28:12.164Z,999.20
2022-11-24T02:29:12.132Z,999.22
2022-11-24T02:30:12.168Z,999.23
2022-11-24T02:31:12.146Z,999.23
2022-11-24T02:32:12.154Z,999.25
2022-11-24T02:33:12.088Z,999.24
2022-11-24T02:34:12.074Z,999.22
2022-11-24T02:35:12.082Z,999.24
2022-11-24T02:36:12.064Z,999.23
2022-11-24T02:37:12.092Z,999.24
2022-11-24T02:38:12.045Z,999.24
2022-11-24T02:39:12.031Z,999.21
2022-11-24T02:40:12.055Z,999.22
2022-11-24T02:41:12.001Z,999.23
2022-11-24T02:42:12.016Z,999.26
2022-11-24T02:43:12.030Z,999.26
2022-11-24T02:44:11.984Z,999.27
2022-11-24T02:45:11.976Z,999.27
2022-11-24T02:46:12.049Z,999.27
2022-11-24T02:47:11.950Z,999.27
2022-11-24T02:48:11.937Z,999.27
2022-11-24T02:49:11.945Z,999.27
2022-11-24T02:50:11.913Z,999.27
2022-11-24T02:51:11.928Z,999.27
2022-11-24T02:52:11.892Z,999.30
2022-11-24T02:53:11.876Z,999.32
2022-11-24T02:54:11.896Z,999.32
2022-11-24T02:55:11.896Z,999.34
2022-11-24T02:56:11.851Z,999.37
2022-11-24T02:57:11.847Z,999.40
2022-11-24T02:58:11.831Z,999.41
2022-11-24T02:59:11.852Z,999.47
2022-11-24T03:00:11.816Z,999.50
2022-11-24T03:01:11.841Z,999.52
2022-11-24T03:02:11.827Z,999.54
2022-11-24T03:03:11.835Z,999.54
2022-11-24T03:04:11.781Z,999.56
2022-11-24T03:05:11.759Z,999.55
2022-11-24T03:06:11.761Z,999.54
2022-11-24T03:07:11.800Z,999.52
2022-11-24T03:08:11.753Z,999.51
2022-11-24T03:09:11.735Z,999.50
2022-11-24T03:10:11.710Z,999.48
2022-11-24T03:11:11.691Z,999.48
2022-11-24T03:12:11.717Z,999.49
2022-11-24T03:13:11.673Z,999.49
2022-11-24T03:14:11.673Z,999.48
2022-11-24T03:15:11.647Z,999.49
2022-11-24T03:16:11.751Z,999.50
2022-11-24T03:17:11.630Z,999.50
2022-11-24T03:18:11.647Z,999.48
2022-11-24T03:19:11.632Z,999.46
2022-11-24T03:20:11.610Z,999.48
2022-11-24T03:21:11.611Z,999.47
2022-11-24T03:22:11.586Z,999.42
2022-11-24T03:23:11.605Z,999.38
2022-11-24T03:24:11.581Z,999.36
2022-11-24T03:25:11.550Z,999.39
2022-11-24T03:26:11.548Z,999.40
2022-11-24T03:27:11.592Z,999.37
2022-11-24T03:28:11.575Z,999.37
2022-11-24T03:29:11.516Z,999.31
2022-11-24T03:30:11.505Z,999.33
2022-11-24T03:31:11.571Z,999.31
2022-11-24T03:32:11.485Z,999.34
2022-11-24T03:33:11.489Z,999.38
2022-11-24T03:34:11.459Z,999.39
2022-11-24T03:35:11.480Z,999.42
2022-11-24T03:36:11.444Z,999.42
2022-11-24T03:37:11.437Z,999.38
2022-11-24T03:38:11.437Z,999.33
2022-11-24T03:39:11.416Z,999.34
2022-11-24T03:40:11.421Z,999.36
2022-11-24T03:41:11.420Z,999.36
2022-11-24T03:42:11.378Z,999.38
2022-11-24T03:43:11.373Z,999.40
2022-11-24T03:44:11.371Z,999.41
2022-11-24T03:45:37.847Z,999.40
2022-11-24T03:46:11.397Z,999.41
2022-11-24T03:47:11.355Z,999.47
2022-11-24T03:48:11.332Z,999.48
2022-11-24T03:49:11.311Z,999.45
2022-11-24T03:50:11.330Z,999.44
2022-11-24T03:51:11.301Z,999.43
2022-11-24T03:52:11.317Z,999.42
2022-11-24T03:53:11.287Z,999.42
2022-11-24T03:54:11.262Z,999.44
2022-11-24T03:55:11.280Z,999.47
2022-11-24T03:56:11.268Z,999.49
2022-11-24T03:57:11.237Z,999.52
2022-11-24T03:58:11.241Z,999.52
2022-11-24T03:59:11.206Z,999.52
2022-11-24T04:00:11.196Z,999.53
2022-11-24T04:01:11.197Z,999.54
2022-11-24T04:02:11.290Z,999.54
2022-11-24T04:03:11.317Z,999.56
2022-11-24T04:04:11.157Z,999.57
2022-11-24T04:05:11.145Z,999.58
2022-11-24T04:06:11.143Z,999.61
2022-11-24T04:07:11.166Z,999.62
2022-11-24T04:08:11.138Z,999.62
2022-11-24T04:09:11.160Z,999.62
2022-11-24T04:10:11.103Z,999.62
2022-11-24T04:11:11.092Z,999.62
2022-11-24T04:12:11.086Z,999.63
2022-11-24T04:13:11.109Z,999.64
2022-11-24T04:14:13.747Z,999.65
2022-11-24T04:15:11.055Z,999.65
2022-11-24T04:16:11.091Z,999.65
2022-11-24T04:17:11.025Z,999.63
2022-11-24T04:18:11.011Z,999.63
2022-11-24T04:19:11.021Z,999.63
2022-11-24T04:20:11.023Z,999.63
2022-11-24T04:21:10.983Z,999.65
2022-11-24T04:22:10.962Z,999.67
2022-11-24T04:23:10.958Z,999.67
2022-11-24T04:24:10.983Z,999.67
2022-11-24T04:25:10.963Z,999.67
2022-11-24T04:26:10.947Z,999.67
2022-11-24T04:27:10.946Z,999.66
2022-11-24T04:28:10.927Z,999.65
2022-11-24T04:29:10.896Z,999.65
2022-11-24T04:30:10.946Z,999.66
2022-11-24T04:31:10.957Z,999.65
2022-11-24T04:32:10.886Z,999.63
2022-11-24T04:33:10.911Z,999.63
2022-11-24T04:34:10.867Z,999.60
2022-11-24T04:35:10.862Z,999.60
2022-11-24T04:36:10.833Z,999.61
2022-11-24T04:37:10.846Z,999.63
2022-11-24T04:38:10.841Z,999.66
2022-11-24T04:39:19.565Z,999.65
2022-11-24T04:40:10.828Z,999.67
2022-11-24T04:41:10.780Z,999.70
2022-11-24T04:42:10.770Z,999.71
2022-11-24T04:43:10.815Z,999.72
2022-11-24T04:44:10.784Z,999.73
2022-11-24T04:45:10.738Z,999.74
2022-11-24T04:46:10.791Z,999.74
2022-11-24T04:47:10.727Z,999.75
2022-11-24T04:48:10.695Z,999.75
2022-11-24T04:49:10.741Z,999.73
2022-11-24T04:50:10.699Z,999.73
2022-11-24T04:51:10.695Z,999.72
2022-11-24T04:52:10.674Z,999.71
2022-11-24T04:53:10.659Z,999.73
2022-11-24T04:54:10.652Z,999.77
2022-11-24T04:55:10.647Z,999.82
2022-11-24T04:56:10.689Z,999.82
2022-11-24T04:57:10.637Z,999.82
2022-11-24T04:58:10.606Z,999.83
2022-11-24T04:59:10.607Z,999.84
2022-11-24T05:00:10.600Z,999.83
2022-11-24T05:01:10.603Z,999.83
2022-11-24T05:02:10.604Z,999.83
2022-11-24T05:03:10.575Z,999.85
2022-11-24T05:04:10.587Z,999.87
2022-11-24T05:05:10.599Z,999.89
2022-11-24T05:06:10.528Z,999.92
2022-11-24T05:07:16.473Z,999.94
2022-11-24T05:08:10.520Z,999.95
2022-11-24T05:09:10.509Z,999.96
2022-11-24T05:10:10.555Z,999.96
2022-11-24T05:11:10.526Z,999.98
2022-11-24T05:12:10.487Z,1000.00
2022-11-24T05:13:10.458Z,1000.02
2022-11-24T05:14:10.459Z,1000.03
2022-11-24T05:15:10.444Z,1000.04
2022-11-24T05:16:10.543Z,1000.03
2022-11-24T05:17:10.414Z,1000.06
2022-11-24T05:18:10.442Z,1000.08
2022-11-24T05:19:10.395Z,1000.10
2022-11-24T05:20:10.389Z,1000.10
2022-11-24T05:21:10.382Z,1000.11
2022-11-24T05:22:10.363Z,1000.12
2022-11-24T05:23:10.393Z,1000.15
2022-11-24T05:24:10.372Z,1000.15
2022-11-24T05:25:10.433Z,1000.17
2022-11-24T05:26:10.322Z,1000.17
2022-11-24T05:27:10.322Z,1000.19
2022-11-24T05:28:10.351Z,1000.20
2022-11-24T05:29:10.311Z,1000.22
2022-11-24T05:30:10.319Z,1000.23
2022-11-24T05:31:10.316Z,1000.24
2022-11-24T05:32:10.260Z,1000.25
2022-11-24T05:33:10.270Z,1000.28
2022-11-24T05:34:10.287Z,1000.29
2022-11-24T05:35:10.276Z,1000.30
2022-11-24T05:36:10.235Z,1000.33
2022-11-24T05:37:10.215Z,1000.31
2022-11-24T05:38:10.236Z,1000.31
2022-11-24T05:39:10.198Z,1000.31
2022-11-24T05:40:10.177Z,1000.30
2022-11-24T05:41:10.184Z,1000.31
2022-11-24T05:42:10.171Z,1000.32
2022-11-24T05:43:10.186Z,1000.35
2022-11-24T05:44:10.190Z,1000.36
2022-11-24T05:45:10.128Z,1000.36
2022-11-24T05:46:10.136Z,1000.38
2022-11-24T05:47:10.126Z,1000.39
2022-11-24T05:48:10.123Z,1000.39
2022-11-24T05:49:10.107Z,1000.38
2022-11-24T05:50:10.150Z,1000.39
2022-11-24T05:51:10.023Z,1000.40
2022-11-24T05:52:10.083Z,1000.42
2022-11-24T05:53:10.110Z,1000.45
2022-11-24T05:54:10.077Z,1000.42
2022-11-24T05:55:10.056Z,1000.42
2022-11-24T05:56:09.982Z,1000.42
2022-11-24T05:57:10.022Z,1000.40
2022-11-24T05:58:10.036Z,1000.39
2022-11-24T05:59:10.318Z,1000.40
2022-11-24T06:00:09.981Z,1000.39
2022-11-24T06:01:10.042Z,1000.40
2022-11-24T06:02:10.142Z,1000.40
2022-11-24T06:03:10.109Z,1000.40
2022-11-24T06:04:09.968Z,1000.40
2022-11-24T06:05:09.904Z,1000.42
2022-11-24T06:06:09.922Z,1000.47
2022-11-24T06:07:09.984Z,1000.46
2022-11-24T06:08:09.850Z,1000.46
2022-11-24T06:09:09.921Z,1000.48
2022-11-24T06:10:09.911Z,1000.47
2022-11-24T06:11:09.882Z,1000.48
2022-11-24T06:12:09.873Z,1000.47
2022-11-24T06:13:09.940Z,1000.46
2022-11-24T06:14:11.439Z,1000.47
2022-11-24T06:15:09.858Z,1000.47
2022-11-24T06:16:09.867Z,1000.45
2022-11-24T06:17:09.807Z,1000.45
2022-11-24T06:18:09.808Z,1000.46
2022-11-24T06:19:09.750Z,1000.47
2022-11-24T06:20:09.813Z,1000.48
2022-11-24T06:21:11.502Z,1000.49
2022-11-24T06:22:09.756Z,1000.50
2022-11-24T06:23:09.754Z,1000.51
2022-11-24T06:24:09.783Z,1000.52
2022-11-24T06:25:09.727Z,1000.53
2022-11-24T06:26:09.743Z,1000.57
2022-11-24T06:27:09.707Z,1000.57
2022-11-24T06:28:09.679Z,1000.58
2022-11-24T06:29:09.629Z,1000.59
2022-11-24T06:30:09.634Z,1000.60
2022-11-24T06:31:09.614Z,1000.60
2022-11-24T06:32:09.727Z,1000.61
2022-11-24T06:33:09.676Z,1000.61
2022-11-24T06:34:09.658Z,1000.60
2022-11-24T06:35:09.642Z,1000.59
2022-11-24T06:36:09.646Z,1000.61
2022-11-24T06:37:09.605Z,1000.61
2022-11-24T06:38:09.606Z,1000.61
2022-11-24T06:39:09.577Z,1000.62
2022-11-24T06:40:09.573Z,1000.61
2022-11-24T06:41:09.844Z,1000.62
2022-11-24T06:42:09.487Z,1000.62
2022-11-24T06:43:09.503Z,1000.63
2022-11-24T06:44:09.480Z,1000.64
2022-11-24T06:45:09.856Z,1000.64
2022-11-24T06:46:09.501Z,1000.65
2022-11-24T06:47:09.499Z,1000.66
2022-11-24T06:48:09.479Z,1000.66
2022-11-24T06:49:09.457Z,1000.66
2022-11-24T06:50:09.420Z,1000.66
2022-11-24T06:51:09.418Z,1000.70
2022-11-24T06:52:09.431Z,1000.71
2022-11-24T06:53:09.437Z,1000.73
2022-11-24T06:54:09.386Z,1000.74
2022-11-24T06:55:09.386Z,1000.71
2022-11-24T06:56:15.280Z,1000.69
2022-11-24T06:57:09.364Z,1000.69
2022-11-24T06:58:09.329Z,1000.73
2022-11-24T06:59:09.346Z,1000.76
2022-11-24T07:00:09.402Z,1000.79
2022-11-24T07:01:09.403Z,1000.83
2022-11-24T07:02:09.323Z,1000.86
2022-11-24T07:03:09.319Z,1000.89
2022-11-24T07:04:09.273Z,1000.92
2022-11-24T07:05:09.298Z,1000.95
2022-11-24T07:06:09.295Z,1000.97
2022-11-24T07:07:09.346Z,1000.98
2022-11-24T07:08:12.021Z,1001.01
2022-11-24T07:09:09.257Z,1001.02
2022-11-24T07:10:09.232Z,1001.04
2022-11-24T07:11:09.287Z,1001.05
2022-11-24T07:12:09.217Z,1001.07
2022-11-24T07:13:09.238Z,1001.08
2022-11-24T07:14:09.255Z,1001.10
2022-11-24T07:15:09.221Z,1001.11
2022-11-24T07:16:09.216Z,1001.11
2022-11-24T07:17:09.210Z,1001.12
2022-11-24T07:18:09.239Z,1001.13
2022-11-24T07:19:09.176Z,1001.13
2022-11-24T07:20:09.603Z,1001.13
2022-11-24T07:21:09.184Z,1001.16
2022-11-24T07:22:09.099Z,1001.18
2022-11-24T07:23:09.130Z,1001.21
2022-11-24T07:24:09.171Z,1001.23
2022-11-24T07:25:09.189Z,1001.23
2022-11-24T07:26:09.082Z,1001.21
2022-11-24T07:27:09.089Z,1001.18
2022-11-24T07:28:09.045Z,1001.18
2022-11-24T07:29:13.531Z,1001.19
2022-11-24T07:30:09.056Z,1001.20
2022-11-24T07:31:09.031Z,1001.25
2022-11-24T07:32:09.115Z,1001.29
2022-11-24T07:33:09.922Z,1001.30
2022-11-24T07:34:08.986Z,1001.30
2022-11-24T07:35:09.014Z,1001.34
2022-11-24T07:36:09.006Z,1001.35
2022-11-24T07:37:09.063Z,1001.36
2022-11-24T07:38:09.111Z,1001.35
2022-11-24T07:39:10.862Z,1001.35
2022-11-24T07:40:08.925Z,1001.35
2022-11-24T07:41:09.185Z,1001.36
2022-11-24T07:42:08.979Z,1001.38
2022-11-24T07:43:08.947Z,1001.41
2022-11-24T07:44:08.933Z,1001.45
2022-11-24T07:45:08.870Z,1001.47
2022-11-24T07:46:08.958Z,1001.48
2022-11-24T07:47:08.886Z,1001.51
2022-11-24T07:48:08.873Z,1001.53
2022-11-24T07:49:08.871Z,1001.53
2022-11-24T07:50:08.821Z,1001.54
2022-11-24T07:51:08.843Z,1001.54
2022-11-24T07:52:09.671Z,1001.56
2022-11-24T07:53:08.912Z,1001.55
2022-11-24T07:54:08.792Z,1001.58
2022-11-24T07:55:08.819Z,1001.58
2022-11-24T07:56:08.755Z,1001.59
2022-11-24T07:57:08.762Z,1001.60
2022-11-24T07:58:08.724Z,1001.60
2022-11-24T07:59:09.004Z,1001.61
2022-11-24T08:00:10.392Z,1001.62
2022-11-24T08:01:08.798Z,1001.65
2022-11-24T08:02:08.745Z,1001.66
2022-11-24T08:03:08.793Z,1001.69
2022-11-24T08:04:08.807Z,1001.69
2022-11-24T08:05:08.996Z,1001.70
2022-11-24T08:06:28.712Z,1001.69
2022-11-24T08:07:08.795Z,1001.72
2022-11-24T08:08:08.723Z,1001.75
2022-11-24T08:09:08.770Z,1001.77
2022-11-24T08:10:08.658Z,1001.79
2022-11-24T08:11:08.595Z,1001.79
2022-11-24T08:12:08.638Z,1001.81
2022-11-24T08:13:08.582Z,1001.80
2022-11-24T08:14:08.586Z,1001.82
2022-11-24T08:15:11.184Z,1001.84
2022-11-24T08:16:08.570Z,1001.88
2022-11-24T08:17:08.561Z,1001.90
2022-11-24T08:18:08.558Z,1001.92
2022-11-24T08:19:08.547Z,1001.96
2022-11-24T08:20:08.559Z,1001.99
2022-11-24T08:21:08.517Z,1002.02
2022-11-24T08:22:08.509Z,1002.02
2022-11-24T08:23:08.524Z,1002.04
2022-11-24T08:24:08.458Z,1002.06
2022-11-24T08:25:08.440Z,1002.11
2022-11-24T08:26:08.462Z,1002.12
2022-11-24T08:27:08.458Z,1002.12
2022-11-24T08:28:08.466Z,1002.14
2022-11-24T08:29:08.436Z,1002.11
2022-11-24T08:30:08.422Z,1002.08
2022-11-24T08:31:08.486Z,1002.09
2022-11-24T08:32:08.531Z,1002.10
2022-11-24T08:33:08.358Z,1002.09
2022-11-24T08:34:08.406Z,1002.10
2022-11-24T08:35:13.896Z,1002.10
2022-11-24T08:36:08.363Z,1002.11
2022-11-24T08:37:08.364Z,1002.09
2022-11-24T08:38:08.338Z,1002.06
2022-11-24T08:39:08.429Z,1002.07
2022-11-24T08:40:08.342Z,1002.06
2022-11-24T08:41:08.465Z,1002.07
2022-11-24T08:42:08.321Z,1002.09
2022-11-24T08:43:08.278Z,1002.09
2022-11-24T08:44:08.288Z,1002.11
2022-11-24T08:45:19.822Z,1002.13
2022-11-24T08:46:08.286Z,1002.15
2022-11-24T08:47:08.242Z,1002.17
2022-11-24T08:48:08.241Z,1002.19
2022-11-24T08:49:08.203Z,1002.20
2022-11-24T08:50:08.221Z,1002.23
2022-11-24T08:51:08.171Z,1002.26
2022-11-24T08:52:08.204Z,1002.28
2022-11-24T08:53:08.214Z,1002.29
2022-11-24T08:54:08.165Z,1002.30
2022-11-24T08:55:08.210Z,1002.31
2022-11-24T08:56:08.124Z,1002.32
2022-11-24T08:57:08.128Z,1002.32
2022-11-24T08:58:08.141Z,1002.34
2022-11-24T08:59:08.217Z,1002.35
2022-11-24T09:00:08.111Z,1002.36
2022-11-24T09:01:08.260Z,1002.38
2022-11-24T09:02:08.072Z,1002.37
2022-11-24T09:03:08.086Z,1002.39
2022-11-24T09:04:08.076Z,1002.40
2022-11-24T09:05:28.695Z,1002.40
2022-11-24T09:06:08.030Z,1002.39
2022-11-24T09:07:08.123Z,1002.42
2022-11-24T09:08:08.009Z,1002.43
2022-11-24T09:09:07.998Z,1002.42
2022-11-24T09:10:08.084Z,1002.42
2022-11-24T09:11:08.008Z,1002.42
2022-11-24T09:12:13.017Z,1002.42
2022-11-24T09:13:07.981Z,1002.40
2022-11-24T09:14:07.941Z,1002.41
2022-11-24T09:15:08.038Z,1002.43
2022-11-24T09:16:08.377Z,1002.42
2022-11-24T09:17:07.933Z,1002.43
2022-11-24T09:18:07.957Z,1002.43
2022-11-24T09:19:07.902Z,1002.43
2022-11-24T09:20:07.907Z,1002.43
2022-11-24T09:21:07.889Z,1002.44
2022-11-24T09:22:07.864Z,1002.45
2022-11-24T09:23:07.866Z,1002.47
2022-11-24T09:24:07.869Z,1002.50
2022-11-24T09:25:07.854Z,1002.52
2022-11-24T09:26:07.900Z,1002.56
2022-11-24T09:27:07.833Z,1002.56
2022-11-24T09:28:07.862Z,1002.55
2022-11-24T09:29:07.807Z,1002.55
2022-11-24T09:30:08.626Z,1002.55
2022-11-24T09:31:07.917Z,1002.57
2022-11-24T09:32:07.791Z,1002.57
2022-11-24T09:33:07.923Z,1002.59
2022-11-24T09:34:07.807Z,1002.60
2022-11-24T09:35:07.752Z,1002.61
2022-11-24T09:36:07.749Z,1002.62
2022-11-24T09:37:07.703Z,1002.62
2022-11-24T09:38:07.806Z,1002.61
2022-11-24T09:39:07.717Z,1002.60
2022-11-24T09:40:07.718Z,1002.62
2022-11-24T09:41:07.691Z,1002.62
2022-11-24T09:42:08.499Z,1002.63
2022-11-24T09:43:08.489Z,1002.66
2022-11-24T09:44:07.647Z,1002.67
2022-11-24T09:45:07.632Z,1002.67
2022-11-24T09:46:07.813Z,1002.69
2022-11-24T09:47:07.646Z,1002.69
2022-11-24T09:48:07.642Z,1002.72
2022-11-24T09:49:07.591Z,1002.73
2022-11-24T09:50:08.067Z,1002.74
2022-11-24T09:51:07.697Z,1002.78
2022-11-24T09:52:07.620Z,1002.79
2022-11-24T09:53:07.828Z,1002.79
2022-11-24T09:54:07.599Z,1002.81
2022-11-24T09:55:07.529Z,1002.82
2022-11-24T09:56:07.626Z,1002.85
2022-11-24T09:57:07.549Z,1002.86
2022-11-24T09:58:07.492Z,1002.90
2022-11-24T09:59:07.541Z,1002.90
2022-11-24T10:00:13.360Z,1002.89
2022-11-24T10:01:07.551Z,1002.92
2022-11-24T10:02:08.012Z,1002.88
2022-11-24T10:03:07.510Z,1002.92
2022-11-24T10:04:07.504Z,1002.93
2022-11-24T10:05:07.855Z,1002.95
2022-11-24T10:06:07.471Z,1002.96
2022-11-24T10:07:07.474Z,1002.95
2022-11-24T10:08:07.371Z,1002.96
2022-11-24T10:09:07.409Z,1002.95
2022-11-24T10:10:07.386Z,1002.94
2022-11-24T10:11:07.393Z,1002.94
2022-11-24T10:12:07.367Z,1002.94
2022-11-24T10:13:07.371Z,1002.93
2022-11-24T10:14:07.318Z,1002.97
2022-11-24T10:15:07.307Z,1002.98
2022-11-24T10:16:07.342Z,1002.93
2022-11-24T10:17:08.968Z,1002.95
2022-11-24T10:18:11.776Z,1002.94
2022-11-24T10:19:07.293Z,1002.98
2022-11-24T10:20:07.299Z,1002.98
2022-11-24T10:21:07.308Z,1002.99
2022-11-24T10:22:07.858Z,1003.01
2022-11-24T10:23:07.229Z,1003.00
2022-11-24T10:24:07.199Z,1003.01
2022-11-24T10:25:07.245Z,1003.00
2022-11-24T10:26:07.199Z,1003.01
2022-11-24T10:27:07.194Z,1003.01
2022-11-24T10:28:07.169Z,1003.01
2022-11-24T10:29:07.893Z,1003.04
2022-11-24T10:30:07.181Z,1003.05
2022-11-24T10:31:07.272Z,1003.03
2022-11-24T10:32:07.149Z,1003.03
2022-11-24T10:33:07.263Z,1003.06
2022-11-24T10:34:07.129Z,1003.03
2022-11-24T10:35:07.154Z,1003.07
2022-11-24T10:36:07.098Z,1003.03
2022-11-24T10:37:07.936Z,1003.04
2022-11-24T10:38:07.075Z,1003.04
2022-11-24T10:39:07.250Z,1003.02
2022-11-24T10:40:10.786Z,1003.06
2022-11-24T10:41:07.115Z,1003.00
2022-11-24T10:42:07.043Z,1003.04
2022-11-24T10:43:07.097Z,1003.01
2022-11-24T10:44:06.997Z,1003.03
2022-11-24T10:45:07.021Z,1003.02
2022-11-24T10:46:07.389Z,1003.08
2022-11-24T10:47:06.980Z,1003.13
2022-11-24T10:48:06.976Z,1003.13
2022-11-24T10:49:07.033Z,1003.14
2022-11-24T10:50:06.963Z,1003.15
2022-11-24T10:51:06.923Z,1003.15
2022-11-24T10:52:07.417Z,1003.15
2022-11-24T10:53:06.939Z,1003.14
2022-11-24T10:54:08.551Z,1003.16
2022-11-24T10:55:07.977Z,1003.15
2022-11-24T10:56:06.902Z,1003.17
2022-11-24T10:57:06.894Z,1003.17
2022-11-24T10:58:06.874Z,1003.19
2022-11-24T10:59:07.039Z,1003.21
2022-11-24T11:00:06.857Z,1003.24
2022-11-24T11:01:06.876Z,1003.26
2022-11-24T11:02:07.170Z,1003.25
2022-11-24T11:03:07.418Z,1003.28
2022-11-24T11:04:06.786Z,1003.26
2022-11-24T11:05:06.769Z,1003.26
2022-11-24T11:06:06.796Z,1003.26
2022-11-24T11:07:07.097Z,1003.25
2022-11-24T11:08:07.619Z,1003.27
2022-11-24T11:09:06.764Z,1003.28
2022-11-24T11:10:06.759Z,1003.28
2022-11-24T11:11:06.861Z,1003.27
2022-11-24T11:12:35.826Z,1003.27
2022-11-24T11:13:06.760Z,1003.29
2022-11-24T11:14:06.888Z,1003.29
2022-11-24T11:15:06.690Z,1003.29
2022-11-24T11:16:06.747Z,1003.31
2022-11-24T11:17:06.648Z,1003.33
2022-11-24T11:18:06.689Z,1003.35
2022-11-24T11:19:26.201Z,1003.36
2022-11-24T11:20:06.861Z,1003.37
2022-11-24T11:21:06.615Z,1003.40
2022-11-24T11:22:06.620Z,1003.41
2022-11-24T11:23:06.601Z,1003.44
2022-11-24T11:24:06.589Z,1003.46
2022-11-24T11:25:06.819Z,1003.46
2022-11-24T11:26:06.613Z,1003.48
2022-11-24T11:27:06.595Z,1003.46
2022-11-24T11:28:09.820Z,1003.52
2022-11-24T11:31:17.121Z,1003.55
2022-11-24T11:34:10.623Z,1003.58
2022-11-24T11:35:06.557Z,1003.56
2022-11-24T11:36:06.539Z,1003.58
2022-11-24T11:37:06.464Z,1003.57
2022-11-24T11:38:06.522Z,1003.57
2022-11-24T11:39:06.483Z,1003.56
2022-11-24T11:40:06.423Z,1003.56
2022-11-24T11:41:06.405Z,1003.58
2022-11-24T11:42:06.431Z,1003.58
2022-11-24T11:43:06.409Z,1003.59
2022-11-24T11:44:06.386Z,1003.61
2022-11-24T11:45:06.427Z,1003.64
2022-11-24T11:46:06.525Z,1003.63
2022-11-24T11:47:06.479Z,1003.62
2022-11-24T11:48:06.391Z,1003.64
2022-11-24T11:49:06.339Z,1003.63
2022-11-24T11:50:07.349Z,1003.62
2022-11-24T11:51:23.025Z,1003.63
2022-11-24T11:52:06.381Z,1003.62
2022-11-24T11:53:06.311Z,1003.64
2022-11-24T11:54:06.330Z,1003.65
2022-11-24T11:55:06.256Z,1003.62
2022-11-24T11:56:06.251Z,1003.61
2022-11-24T11:57:06.253Z,1003.63
2022-11-24T11:58:06.230Z,1003.62
2022-11-24T11:59:06.223Z,1003.62
2022-11-24T12:00:06.200Z,1003.63
2022-11-24T12:01:06.189Z,1003.64
2022-11-24T12:02:06.194Z,1003.63
2022-11-24T12:03:06.335Z,1003.64
2022-11-24T12:04:06.434Z,1003.66
2022-11-24T12:05:06.150Z,1003.67
2022-11-24T12:06:06.164Z,1003.67
2022-11-24T12:07:06.152Z,1003.68
2022-11-24T12:08:09.752Z,1003.67
2022-11-24T12:09:20.405Z,1003.68
2022-11-24T12:10:06.102Z,1003.71
2022-11-24T12:11:06.113Z,1003.73
2022-11-24T12:12:06.069Z,1003.78
2022-11-24T12:13:06.075Z,1003.78
2022-11-24T12:14:06.053Z,1003.80
2022-11-24T12:15:10.773Z,1003.82
2022-11-24T12:16:06.204Z,1003.84
2022-11-24T12:17:06.083Z,1003.83
2022-11-24T12:18:06.024Z,1003.81
2022-11-24T12:19:06.027Z,1003.82